Time;durP1;ratioP1;P1;durP2;ratioP2;P2;SDS_P1;SDS_P2;PMS_P1;PMS_P2;Temp;Humidity;BMP_temperature;BMP_pressure;BME280_temperature;BME280_humidity;BME280_pressure;Samples;Min_cycle;Max_cycle;Signal;HPM_P1;HPM_P2
2021/05/19 00:00:49;;;;;;;4.47;0.90;;;12.50;99.90;;;;;;5113425;28;20024;-61
2021/05/19 00:03:16;;;;;;;1.58;0.85;;;12.50;99.90;;;;;;5111875;28;20051;-62
2021/05/19 00:05:42;;;;;;;1.98;1.20;;;12.50;99.90;;;;;;5111381;28;20028;-62
2021/05/19 00:08:08;;;;;;;1.98;1.08;;;12.50;99.90;;;;;;5111918;28;20035;-61
2021/05/19 00:10:35;;;;;;;1.40;0.90;;;12.50;99.90;;;;;;5112598;28;20035;-62
2021/05/19 00:13:01;;;;;;;0.98;0.85;;;12.50;99.90;;;;;;5113381;28;20489;-62
2021/05/19 00:15:27;;;;;;;1.02;0.93;;;12.50;99.90;;;;;;5112327;28;20019;-62
2021/05/19 00:17:52;;;;;;;1.77;1.20;;;12.40;99.90;;;;;;5111524;28;20074;-62
2021/05/19 00:20:19;;;;;;;1.70;1.23;;;12.40;99.90;;;;;;5110681;28;20031;-62
2021/05/19 00:22:44;;;;;;;1.15;1.00;;;12.40;99.90;;;;;;5110984;28;20068;-62
2021/05/19 00:26:00;;;;;;;4.28;1.23;;;12.40;99.90;;;;;;5111421;28;20429;-62
2021/05/19 00:28:26;;;;;;;1.73;1.27;;;12.40;99.90;;;;;;5112459;28;20512;-63
2021/05/19 00:30:56;;;;;;;2.92;1.20;;;12.20;99.90;;;;;;5112877;28;20023;-62
2021/05/19 00:33:23;;;;;;;1.33;0.90;;;12.20;99.90;;;;;;5111414;28;20020;-62
2021/05/19 00:35:49;;;;;;;0.95;0.90;;;12.20;99.90;;;;;;5110821;28;20031;-63
2021/05/19 00:38:14;;;;;;;1.67;1.33;;;12.30;99.90;;;;;;5111203;28;20031;-61
2021/05/19 00:40:40;;;;;;;2.65;1.00;;;12.30;99.90;;;;;;5112072;28;20031;-63
2021/05/19 00:43:06;;;;;;;4.70;1.38;;;12.30;99.90;;;;;;5112910;28;20111;-62
2021/05/19 00:45:31;;;;;;;4.63;1.73;;;12.20;99.90;;;;;;5112043;28;20024;-63
2021/05/19 00:47:58;;;;;;;4.18;1.65;;;12.20;99.90;;;;;;5111092;28;20071;-62
2021/05/19 00:50:27;;;;;;;4.00;1.13;;;12.10;99.90;;;;;;5112046;28;20032;-62
2021/05/19 00:52:52;;;;;;;1.40;1.17;;;12.10;99.90;;;;;;5110992;28;20097;-62
2021/05/19 00:55:19;;;;;;;1.13;0.93;;;12.00;99.90;;;;;;5110769;28;20453;-63
2021/05/19 00:57:46;;;;;;;1.50;1.40;;;12.10;99.90;;;;;;5109857;28;20051;-62
2021/05/19 01:00:15;;;;;;;1.63;1.50;;;12.10;99.90;;;;;;5112003;28;20467;-62
2021/05/19 01:02:41;;;;;;;2.22;1.30;;;12.10;99.90;;;;;;5110113;28;20077;-62
2021/05/19 01:05:13;;;;;;;1.52;1.30;;;12.00;99.90;;;;;;5111811;28;20111;-62
2021/05/19 01:07:46;;;;;;;3.70;1.10;;;11.90;99.90;;;;;;5110040;28;20028;-63
2021/05/19 01:10:11;;;;;;;2.85;1.63;;;11.90;99.90;;;;;;5112129;28;20061;-61
2021/05/19 01:12:37;;;;;;;1.83;1.58;;;11.90;99.90;;;;;;5111278;28;20150;-63
2021/05/19 01:15:03;;;;;;;3.60;1.20;;;11.80;99.90;;;;;;5111776;28;20065;-63
2021/05/19 01:17:29;;;;;;;2.75;1.30;;;11.80;99.90;;;;;;5109472;28;20128;-62
2021/05/19 01:19:54;;;;;;;3.25;1.75;;;11.80;99.90;;;;;;5111916;28;20596;-62
2021/05/19 01:22:25;;;;;;;1.90;1.65;;;11.70;99.90;;;;;;5110500;28;20048;-63
2021/05/19 01:24:53;;;;;;;1.75;1.35;;;11.70;99.90;;;;;;5109944;28;20372;-62
2021/05/19 01:27:19;;;;;;;4.38;1.88;;;11.60;99.90;;;;;;5110273;28;20482;-62
2021/05/19 01:29:56;;;;;;;1.58;1.45;;;11.60;99.90;;;;;;5110978;28;20031;-62
2021/05/19 01:32:23;;;;;;;3.60;2.33;;;11.50;99.90;;;;;;5111275;28;20522;-62
2021/05/19 01:34:48;;;;;;;3.63;1.90;;;11.50;99.90;;;;;;5109381;28;20067;-61
2021/05/19 01:37:16;;;;;;;3.65;1.83;;;11.50;99.90;;;;;;5111116;28;20112;-62
2021/05/19 01:39:43;;;;;;;3.28;2.10;;;11.60;99.90;;;;;;5109219;28;20057;-61
2021/05/19 01:42:09;;;;;;;1.88;1.63;;;11.60;99.90;;;;;;5111401;28;20120;-62
2021/05/19 01:44:35;;;;;;;3.33;1.73;;;11.60;99.90;;;;;;5110780;28;20019;-63
2021/05/19 01:47:05;;;;;;;1.73;1.60;;;11.50;99.90;;;;;;5109636;28;20035;-63
2021/05/19 01:49:36;;;;;;;2.50;1.60;;;11.40;99.90;;;;;;5110999;28;20172;-63
2021/05/19 01:52:03;;;;;;;3.58;1.70;;;11.30;99.90;;;;;;5111394;28;20020;-63
2021/05/19 01:54:30;;;;;;;1.73;1.50;;;11.30;99.90;;;;;;5109334;28;20177;-74
2021/05/19 01:56:56;;;;;;;1.83;1.42;;;11.30;99.90;;;;;;5109872;28;20080;-62
2021/05/19 01:59:22;;;;;;;3.58;1.88;;;11.20;99.90;;;;;;5109531;28;20063;-62
2021/05/19 02:01:47;;;;;;;2.95;2.75;;;11.20;99.90;;;;;;5108844;28;20062;-61
2021/05/19 02:04:15;;;;;;;3.42;2.15;;;11.30;99.90;;;;;;5109682;28;20027;-63
2021/05/19 02:06:49;;;;;;;3.35;2.40;;;11.20;99.90;;;;;;5101011;28;20024;-62
2021/05/19 02:09:17;;;;;;;4.45;2.75;;;11.20;99.90;;;;;;5090859;28;20024;-62
2021/05/19 02:11:43;;;;;;;3.50;3.00;;;11.20;99.90;;;;;;5088692;28;20149;-62
2021/05/19 02:14:09;;;;;;;4.50;3.45;;;11.10;99.90;;;;;;5090087;28;20039;-62
2021/05/19 02:16:35;;;;;;;4.93;3.65;;;11.10;99.90;;;;;;5088354;28;20142;-62
2021/05/19 02:19:01;;;;;;;5.03;3.67;;;11.10;99.90;;;;;;5090319;28;20103;-63
2021/05/19 02:21:27;;;;;;;5.60;4.20;;;11.10;99.90;;;;;;5088889;28;20035;-62
2021/05/19 02:23:53;;;;;;;4.60;4.20;;;10.90;99.90;;;;;;5089367;28;20032;-62
2021/05/19 02:26:19;;;;;;;5.22;3.88;;;10.90;99.90;;;;;;5090301;28;20053;-62
2021/05/19 02:28:46;;;;;;;5.05;4.55;;;10.80;99.90;;;;;;5089630;28;20036;-62
2021/05/19 02:31:12;;;;;;;5.03;4.25;;;10.70;99.90;;;;;;5088686;28;20389;-62
2021/05/19 02:33:37;;;;;;;5.03;4.53;;;10.80;99.90;;;;;;5089745;28;20073;-61
2021/05/19 02:36:03;;;;;;;5.90;4.32;;;10.80;99.90;;;;;;5088826;28;20461;-61
2021/05/19 02:38:30;;;;;;;6.28;4.50;;;10.70;99.90;;;;;;5088271;28;20077;-61
2021/05/19 02:40:56;;;;;;;5.65;4.90;;;10.70;99.90;;;;;;5087933;28;20028;-61
2021/05/19 02:43:22;;;;;;;6.55;4.70;;;10.70;99.90;;;;;;5087668;28;20100;-61
2021/05/19 02:45:49;;;;;;;6.28;4.80;;;10.50;99.90;;;;;;5089113;28;20028;-63
2021/05/19 02:48:14;;;;;;;5.03;4.18;;;10.50;99.90;;;;;;5089875;28;20075;-62
2021/05/19 02:50:40;;;;;;;7.40;4.40;;;10.50;99.90;;;;;;5087521;28;20031;-62
2021/05/19 02:53:06;;;;;;;6.32;4.35;;;10.60;99.90;;;;;;5089711;28;20032;-62
2021/05/19 02:55:33;;;;;;;5.88;4.43;;;10.60;99.90;;;;;;5088202;28;20020;-62
2021/05/19 02:57:59;;;;;;;5.90;4.60;;;10.60;99.90;;;;;;5088623;28;20035;-61
2021/05/19 03:00:25;;;;;;;5.20;4.65;;;10.60;99.90;;;;;;5088549;28;20037;-61
2021/05/19 03:02:50;;;;;;;6.07;5.47;;;10.50;99.90;;;;;;5087760;28;20028;-62
2021/05/19 03:05:16;;;;;;;9.50;5.25;;;10.50;99.90;;;;;;5090128;28;20373;-63
2021/05/19 03:07:44;;;;;;;6.45;4.55;;;10.40;99.90;;;;;;5087896;28;20031;-62
2021/05/19 03:10:11;;;;;;;5.20;4.70;;;10.50;99.90;;;;;;5090125;28;20080;-63
2021/05/19 03:12:37;;;;;;;5.32;4.82;;;10.70;99.90;;;;;;5087831;28;20028;-62
2021/05/19 03:15:05;;;;;;;4.88;4.43;;;10.70;99.90;;;;;;5089682;28;20396;-62
2021/05/19 03:17:30;;;;;;;6.95;4.70;;;10.70;99.90;;;;;;5089515;28;20143;-62
2021/05/19 03:19:56;;;;;;;7.88;5.50;;;10.50;99.90;;;;;;5087700;28;20542;-62
2021/05/19 03:22:21;;;;;;;8.55;5.03;;;10.50;99.90;;;;;;5089558;28;20393;-62
2021/05/19 03:24:47;;;;;;;11.80;5.22;;;10.30;99.90;;;;;;5088589;28;20024;-62
2021/05/19 03:27:13;;;;;;;4.10;3.70;;;10.20;99.90;;;;;;5089558;28;20024;-63
2021/05/19 03:29:38;;;;;;;6.38;5.10;;;10.30;99.90;;;;;;5088957;28;20106;-62
2021/05/19 03:32:04;;;;;;;5.57;5.07;;;10.30;99.90;;;;;;5088171;28;20075;-62
2021/05/19 03:34:30;;;;;;;8.88;5.13;;;10.20;99.90;;;;;;5088018;28;20110;-61
2021/05/19 03:36:57;;;;;;;9.40;5.38;;;10.10;99.90;;;;;;5087478;28;20521;-61
2021/05/19 03:39:23;;;;;;;5.53;4.75;;;10.00;99.90;;;;;;5089057;28;20481;-61
2021/05/19 03:41:48;;;;;;;5.72;5.20;;;10.00;99.90;;;;;;5088744;28;20043;-62
2021/05/19 03:44:14;;;;;;;5.32;4.82;;;10.00;99.90;;;;;;5088273;28;20427;-63
2021/05/19 03:46:40;;;;;;;5.35;4.85;;;9.90;99.90;;;;;;5088878;28;20530;-61
2021/05/19 03:49:06;;;;;;;6.35;4.38;;;9.80;99.90;;;;;;5089169;28;20518;-61
2021/05/19 03:51:33;;;;;;;4.60;4.20;;;9.90;99.90;;;;;;5088287;28;20307;-62
2021/05/19 03:53:59;;;;;;;4.15;3.67;;;9.80;99.90;;;;;;5087563;28;20036;-62
2021/05/19 03:56:25;;;;;;;5.68;4.22;;;10.00;99.90;;;;;;5092976;28;20028;-63
2021/05/19 03:58:51;;;;;;;6.18;3.90;;;10.10;99.90;;;;;;5090999;28;20043;-62
2021/05/19 04:01:17;;;;;;;5.88;3.75;;;10.00;99.90;;;;;;5092643;28;20042;-61
2021/05/19 04:03:43;;;;;;;3.80;3.45;;;10.00;99.90;;;;;;5092238;28;20103;-61
2021/05/19 04:06:09;;;;;;;4.13;3.65;;;10.00;99.90;;;;;;5092547;28;20024;-61
2021/05/19 04:08:37;;;;;;;5.70;3.67;;;9.70;99.90;;;;;;5091315;28;20496;-61
2021/05/19 04:11:04;;;;;;;4.47;3.10;;;9.70;99.90;;;;;;5091216;28;20055;-62
2021/05/19 04:13:30;;;;;;;6.50;3.47;;;10.00;99.90;;;;;;5092711;28;20127;-62
2021/05/19 04:15:55;;;;;;;5.63;3.72;;;10.00;99.90;;;;;;5091976;28;20120;-61
2021/05/19 04:18:21;;;;;;;5.70;3.30;;;9.80;99.90;;;;;;5091093;28;20059;-62
2021/05/19 04:20:51;;;;;;;4.75;4.28;;;9.90;99.90;;;;;;5091971;28;20044;-62
2021/05/19 04:23:17;;;;;;;3.95;3.53;;;10.00;99.90;;;;;;5092381;28;20104;-63
2021/05/19 04:25:43;;;;;;;4.43;3.35;;;10.00;99.90;;;;;;5091878;28;20211;-62
2021/05/19 04:28:10;;;;;;;5.55;4.03;;;10.20;99.90;;;;;;5090993;28;20168;-61
2021/05/19 04:30:36;;;;;;;4.05;3.72;;;10.20;99.90;;;;;;5090996;28;20035;-64
2021/05/19 04:33:03;;;;;;;4.03;3.40;;;10.00;99.90;;;;;;5091724;28;20111;-62
2021/05/19 04:35:29;;;;;;;7.30;4.18;;;10.10;99.90;;;;;;5092030;28;20039;-62
2021/05/19 04:37:55;;;;;;;5.28;4.78;;;10.00;99.90;;;;;;5091368;28;20054;-62
2021/05/19 04:40:21;;;;;;;6.38;3.80;;;10.00;99.90;;;;;;5090734;28;20466;-62
2021/05/19 04:42:48;;;;;;;5.40;3.63;;;10.10;99.90;;;;;;5091320;28;20032;-62
2021/05/19 04:45:14;;;;;;;7.38;5.18;;;10.20;99.90;;;;;;5090771;28;20020;-63
2021/05/19 04:47:40;;;;;;;7.15;4.65;;;10.20;99.90;;;;;;5091663;28;20063;-75
2021/05/19 04:50:07;;;;;;;6.45;4.50;;;10.00;99.90;;;;;;5090691;28;20067;-61
2021/05/19 04:52:33;;;;;;;6.13;4.55;;;10.00;99.90;;;;;;5090378;28;20039;-62
2021/05/19 04:55:01;;;;;;;9.40;4.75;;;9.90;99.90;;;;;;5091583;28;20371;-62
2021/05/19 04:57:27;;;;;;;6.75;4.72;;;9.70;99.90;;;;;;5090265;28;20115;-61
2021/05/19 04:59:52;;;;;;;6.53;4.53;;;10.00;99.90;;;;;;5089511;28;20132;-62
2021/05/19 05:02:18;;;;;;;5.95;4.90;;;9.90;99.90;;;;;;5091632;28;20064;-62
2021/05/19 05:04:43;;;;;;;6.22;4.60;;;10.00;99.90;;;;;;5090761;28;20028;-63
2021/05/19 05:07:09;;;;;;;5.43;4.88;;;10.10;99.90;;;;;;5090299;28;20028;-63
2021/05/19 05:09:35;;;;;;;8.13;4.65;;;10.20;99.90;;;;;;5090242;28;20028;-61
2021/05/19 05:12:00;;;;;;;6.32;4.57;;;10.20;99.90;;;;;;5089521;28;20038;-62
2021/05/19 05:14:26;;;;;;;4.75;4.15;;;10.40;99.90;;;;;;5092056;28;20092;-62
2021/05/19 05:16:52;;;;;;;7.18;4.28;;;10.50;99.90;;;;;;5088966;28;20051;-62
2021/05/19 05:19:17;;;;;;;5.10;3.72;;;10.60;99.90;;;;;;5091378;28;20472;-61
2021/05/19 05:21:43;;;;;;;6.75;4.15;;;10.70;99.90;;;;;;5090526;28;20028;-63
2021/05/19 05:24:09;;;;;;;4.55;4.03;;;10.70;99.90;;;;;;5089578;28;20064;-62
2021/05/19 05:26:35;;;;;;;4.68;3.42;;;10.70;99.90;;;;;;5089762;28;20051;-62
2021/05/19 05:29:01;;;;;;;4.43;3.45;;;10.70;99.90;;;;;;5090178;28;20055;-62
2021/05/19 05:31:26;;;;;;;5.18;3.35;;;10.60;99.90;;;;;;5075214;28;20362;-62
2021/05/19 05:33:52;;;;;;;5.07;3.58;;;10.60;99.90;;;;;;5104574;28;20020;-63
2021/05/19 05:36:18;;;;;;;3.88;3.28;;;10.80;99.90;;;;;;5111309;28;20035;-61
2021/05/19 05:38:44;;;;;;;3.92;3.10;;;10.70;99.90;;;;;;5110494;28;20024;-61
2021/05/19 05:41:10;;;;;;;7.53;2.72;;;10.70;99.90;;;;;;5109653;28;20035;-61
2021/05/19 05:43:36;;;;;;;56.08;11.52;;;10.40;99.90;;;;;;5109638;28;20023;-62
2021/05/19 05:46:01;;;;;;;4.15;3.38;;;11.70;99.90;;;;;;5108709;28;20048;-62
2021/05/19 05:48:27;;;;;;;6.20;3.20;;;11.00;99.90;;;;;;5110929;28;20058;-61
2021/05/19 05:50:53;;;;;;;4.25;3.13;;;11.30;99.90;;;;;;5109814;28;20023;-62
2021/05/19 05:53:19;;;;;;;3.30;3.00;;;11.60;99.90;;;;;;5110459;28;20031;-62
2021/05/19 05:55:44;;;;;;;2.83;2.50;;;11.50;99.90;;;;;;5107038;28;20035;-67
2021/05/19 05:58:10;;;;;;;7.65;3.10;;;11.70;99.90;;;;;;5108040;28;20102;-64
2021/05/19 06:00:36;;;;;;;9.13;2.90;;;11.50;99.90;;;;;;5107957;28;20054;-62
2021/05/19 06:03:04;;;;;;;5.85;2.60;;;11.10;99.90;;;;;;5108955;28;20031;-62
2021/05/19 06:05:29;;;;;;;4.03;2.50;;;11.00;99.90;;;;;;5109120;28;20039;-64
2021/05/19 06:07:55;;;;;;;6.38;2.70;;;10.90;99.90;;;;;;5108775;28;20032;-62
2021/05/19 06:10:21;;;;;;;3.17;2.58;;;10.90;99.90;;;;;;5108652;28;20032;-64
2021/05/19 06:12:46;;;;;;;4.82;2.67;;;11.00;99.90;;;;;;5107179;28;20080;-62
2021/05/19 06:15:12;;;;;;;3.42;2.58;;;11.00;99.90;;;;;;5107568;28;20026;-62
2021/05/19 06:17:38;;;;;;;3.90;2.35;;;11.10;99.90;;;;;;5108425;28;20056;-61
2021/05/19 06:20:05;;;;;;;4.47;2.35;;;11.20;99.90;;;;;;5106731;28;20062;-62
2021/05/19 06:22:31;;;;;;;2.83;2.33;;;11.20;99.90;;;;;;5100844;28;20445;-61
2021/05/19 06:24:56;;;;;;;2.50;2.30;;;11.30;99.90;;;;;;5103910;28;20043;-62
2021/05/19 06:27:22;;;;;;;7.35;3.05;;;11.30;99.90;;;;;;5089034;28;20469;-66
2021/05/19 06:29:48;;;;;;;4.90;2.45;;;11.30;99.90;;;;;;5086251;28;20127;-64
2021/05/19 06:32:14;;;;;;;3.65;3.35;;;11.40;99.90;;;;;;5103913;28;20027;-64
2021/05/19 06:34:40;;;;;;;5.40;2.80;;;11.40;99.90;;;;;;5104180;28;20101;-62
2021/05/19 06:37:06;;;;;;;4.65;2.70;;;11.50;99.90;;;;;;5103422;28;20437;-62
2021/05/19 06:39:32;;;;;;;5.55;2.55;;;11.50;99.90;;;;;;5104157;28;20032;-64
2021/05/19 06:41:58;;;;;;;3.85;2.78;;;11.60;99.90;;;;;;5103386;28;20027;-64
2021/05/19 06:44:24;;;;;;;3.38;2.20;;;11.70;99.90;;;;;;5104472;28;20498;-63
2021/05/19 06:46:50;;;;;;;5.43;2.30;;;11.90;99.90;;;;;;5103512;28;20036;-62
2021/05/19 06:49:17;;;;;;;4.63;2.35;;;12.00;99.90;;;;;;5104021;28;20039;-61
2021/05/19 06:51:42;;;;;;;5.72;2.42;;;12.10;99.90;;;;;;5088238;28;20032;-63
2021/05/19 06:54:09;;;;;;;5.82;2.72;;;12.50;99.90;;;;;;5087772;28;20062;-76
2021/05/19 06:56:36;;;;;;;4.95;3.05;;;12.80;99.90;;;;;;5088105;28;20350;-63
2021/05/19 06:59:02;;;;;;;2.92;2.38;;;13.30;99.90;;;;;;5087754;28;20040;-63
2021/05/19 07:01:28;;;;;;;7.32;3.00;;;13.60;99.90;;;;;;5088582;28;20024;-64
2021/05/19 07:03:54;;;;;;;6.00;2.30;;;13.40;99.90;;;;;;5086358;28;20032;-62
2021/05/19 07:06:21;;;;;;;11.18;3.50;;;13.90;99.90;;;;;;5087181;28;20319;-62
2021/05/19 07:08:47;;;;;;;4.00;2.60;;;14.10;99.90;;;;;;5086456;28;20040;-65
2021/05/19 07:11:14;;;;;;;6.45;2.38;;;13.90;99.90;;;;;;5087282;28;20043;-63
2021/05/19 07:13:40;;;;;;;3.47;2.45;;;14.10;99.90;;;;;;5086859;28;20035;-62
2021/05/19 07:16:06;;;;;;;5.18;2.20;;;14.00;99.90;;;;;;5087558;28;20024;-62
2021/05/19 07:18:31;;;;;;;3.08;1.92;;;14.20;99.90;;;;;;5087320;28;20491;-63
2021/05/19 07:20:57;;;;;;;5.60;2.45;;;14.30;99.90;;;;;;5106799;28;20498;-66
2021/05/19 07:23:23;;;;;;;8.45;2.22;;;14.40;99.90;;;;;;5108846;28;20084;-66
2021/05/19 07:25:49;;;;;;;6.07;2.80;;;14.40;99.90;;;;;;5106515;28;20480;-64
2021/05/19 07:28:16;;;;;;;6.63;2.53;;;14.40;99.90;;;;;;5109019;28;20032;-63
2021/05/19 07:30:43;;;;;;;2.88;2.47;;;14.30;99.90;;;;;;5112864;28;20114;-64
2021/05/19 07:33:11;;;;;;;4.80;2.38;;;14.40;99.90;;;;;;5112331;28;20422;-65
2021/05/19 07:35:37;;;;;;;5.53;2.25;;;14.50;99.90;;;;;;5112657;28;20053;-64
2021/05/19 07:38:06;;;;;;;5.03;2.45;;;14.30;99.90;;;;;;5110673;28;20171;-62
2021/05/19 07:40:32;;;;;;;6.65;2.30;;;14.20;99.90;;;;;;5111920;28;20032;-64
2021/05/19 07:42:58;;;;;;;6.85;2.17;;;14.20;99.90;;;;;;5111758;28;20020;-62
2021/05/19 07:45:23;;;;;;;5.80;2.33;;;14.40;99.90;;;;;;5112554;28;20132;-62
2021/05/19 07:47:49;;;;;;;4.57;2.42;;;14.60;99.90;;;;;;5110056;28;20422;-62
2021/05/19 07:50:15;;;;;;;2.47;2.17;;;14.60;99.90;;;;;;5111881;28;20059;-65
2021/05/19 07:52:41;;;;;;;4.45;2.30;;;14.40;99.90;;;;;;5110828;28;20147;-67
2021/05/19 07:55:11;;;;;;;3.45;2.28;;;14.50;99.90;;;;;;5109491;28;20034;-63
2021/05/19 07:57:48;;;;;;;4.60;2.25;;;14.70;99.90;;;;;;5111556;28;20441;-64
2021/05/19 08:00:18;;;;;;;9.98;2.88;;;14.90;99.90;;;;;;5111963;28;20043;-62
2021/05/19 08:02:44;;;;;;;2.63;2.03;;;15.20;99.90;;;;;;5109566;28;20031;-74
2021/05/19 08:05:11;;;;;;;3.78;1.70;;;15.40;99.90;;;;;;5111606;28;20019;-61
2021/05/19 08:07:36;;;;;;;5.22;1.95;;;15.90;99.90;;;;;;5111548;28;20042;-65
2021/05/19 08:10:03;;;;;;;3.53;2.10;;;16.00;99.90;;;;;;5110913;28;20028;-62
2021/05/19 08:12:28;;;;;;;2.45;2.10;;;15.60;99.90;;;;;;5111046;28;20054;-63
2021/05/19 08:14:54;;;;;;;2.58;2.10;;;15.30;99.90;;;;;;5110849;28;20028;-63
2021/05/19 08:17:20;;;;;;;2.20;1.95;;;15.20;99.90;;;;;;5109112;28;20087;-64
2021/05/19 08:19:46;;;;;;;7.00;2.20;;;15.50;99.90;;;;;;5098279;28;20047;-62
2021/05/19 08:22:13;;;;;;;2.47;1.55;;;15.50;99.90;;;;;;5106743;28;20034;-63
2021/05/19 08:24:40;;;;;;;5.05;1.52;;;15.80;99.90;;;;;;5089407;28;20020;-62
2021/05/19 08:27:06;;;;;;;3.97;2.03;;;16.30;99.90;;;;;;5098772;28;20019;-62
2021/05/19 08:29:32;;;;;;;2.67;1.20;;;16.40;98.80;;;;;;5097242;28;20032;-62
2021/05/19 08:31:59;;;;;;;2.47;1.70;;;16.80;99.00;;;;;;5089239;28;20040;-62
2021/05/19 08:34:25;;;;;;;2.08;1.60;;;17.00;97.80;;;;;;5089260;28;20093;-62
2021/05/19 08:36:51;;;;;;;3.72;1.42;;;16.90;97.60;;;;;;5089864;28;20123;-66
2021/05/19 08:39:18;;;;;;;3.88;1.55;;;16.90;97.70;;;;;;5088915;28;20032;-64
2021/05/19 08:41:49;;;;;;;5.57;1.83;;;16.70;96.80;;;;;;5087021;28;20047;-73
2021/05/19 08:44:15;;;;;;;1.73;1.42;;;16.40;97.10;;;;;;5089478;28;20035;-64
2021/05/19 08:46:49;;;;;;;4.43;1.90;;;15.90;97.90;;;;;;5089237;28;20085;-62
2021/05/19 08:49:16;;;;;;;2.90;1.90;;;15.60;98.80;;;;;;5089549;28;20046;-64
2021/05/19 08:51:43;;;;;;;4.07;2.00;;;15.70;98.80;;;;;;5089835;28;20025;-64
2021/05/19 08:54:09;;;;;;;3.67;2.15;;;15.40;99.20;;;;;;5089281;28;20024;-63
2021/05/19 08:56:44;;;;;;;2.13;1.45;;;15.70;98.20;;;;;;5103571;28;20093;-63
2021/05/19 08:59:10;;;;;;;2.50;1.63;;;16.10;98.00;;;;;;5108075;28;20051;-66
2021/05/19 09:01:49;;;;;;;2.47;1.60;;;16.40;97.20;;;;;;5106109;28;20023;-62
2021/05/19 09:04:19;;;;;;;7.05;1.67;;;16.60;98.90;;;;;;5110087;28;20023;-66
2021/05/19 09:06:52;;;;;;;6.07;1.63;;;17.30;96.30;;;;;;5110072;28;20027;-67
2021/05/19 09:09:30;;;;;;;4.07;1.80;;;17.80;96.30;;;;;;5109787;28;20089;-67
2021/05/19 09:12:10;;;;;;;3.33;1.40;;;17.60;94.40;;;;;;5108694;28;20115;-67
2021/05/19 09:14:45;;;;;;;1.40;1.20;;;17.70;95.30;;;;;;5110955;28;20177;-67
2021/05/19 09:17:33;;;;;;;3.20;1.70;;;17.60;94.70;;;;;;5106478;28;20060;-63
2021/05/19 09:20:14;;;;;;;4.10;1.20;;;17.50;94.90;;;;;;5105614;28;20413;-62
2021/05/19 09:22:45;;;;;;;5.07;2.08;;;17.70;97.10;;;;;;5108846;28;20036;-62
2021/05/19 09:25:17;;;;;;;7.38;1.90;;;17.90;95.10;;;;;;5092077;28;20070;-62
2021/05/19 09:27:44;;;;;;;4.43;2.00;;;17.10;95.40;;;;;;5101160;28;20789;-62
2021/05/19 09:30:11;;;;;;;1.92;1.58;;;17.20;94.80;;;;;;5105908;28;20028;-63
2021/05/19 09:32:39;;;;;;;3.60;1.35;;;17.60;94.60;;;;;;5107519;28;20028;-62
2021/05/19 09:35:09;;;;;;;5.25;1.50;;;17.70;94.00;;;;;;5107122;28;20080;-63
2021/05/19 09:37:36;;;;;;;4.55;1.92;;;17.70;94.00;;;;;;5100532;28;20032;-66
2021/05/19 09:40:09;;;;;;;4.85;1.73;;;17.10;94.30;;;;;;5108116;28;20035;-64
2021/05/19 09:42:46;;;;;;;7.60;1.40;;;17.60;93.50;;;;;;5108668;28;20054;-64
2021/05/19 09:45:22;;;;;;;4.15;1.50;;;17.60;93.20;;;;;;5108643;28;20027;-63
2021/05/19 09:47:50;;;;;;;1.67;1.05;;;17.70;92.50;;;;;;5108157;28;20397;-70
2021/05/19 09:50:19;;;;;;;1.92;1.20;;;17.70;92.70;;;;;;5107218;28;20027;-64
2021/05/19 09:53:07;;;;;;;3.38;1.35;;;17.90;92.60;;;;;;5107636;28;20080;-63
2021/05/19 09:55:35;;;;;;;3.92;1.30;;;18.10;91.10;;;;;;5103283;28;20035;-65
2021/05/19 09:58:02;;;;;;;2.03;0.70;;;18.00;90.40;;;;;;5106510;28;20357;-68
2021/05/19 10:00:30;;;;;;;1.88;0.80;;;18.60;91.40;;;;;;5107197;28;20051;-64
2021/05/19 10:02:56;;;;;;;3.42;1.23;;;18.20;89.40;;;;;;5106459;28;20159;-65
2021/05/19 10:07:49;;;;;;;4.43;1.40;;;18.00;91.80;;;;;;5088104;28;20412;-74
2021/05/19 10:10:16;;;;;;;1.25;0.73;;;17.90;93.00;;;;;;5100097;28;20059;-64
2021/05/19 10:12:42;;;;;;;2.28;0.90;;;17.30;91.40;;;;;;5107985;28;20027;-65
2021/05/19 10:15:14;;;;;;;2.75;0.88;;;17.10;92.40;;;;;;5106391;28;20039;-64
2021/05/19 10:17:43;;;;;;;1.17;0.95;;;17.20;95.00;;;;;;5106399;28;20476;-65
2021/05/19 10:20:13;;;;;;;1.98;0.57;;;17.30;94.00;;;;;;5107590;28;20031;-63
2021/05/19 10:22:44;;;;;;;3.17;0.80;;;17.10;91.00;;;;;;5108725;28;20090;-63
2021/05/19 10:25:19;;;;;;;1.45;1.00;;;16.70;92.50;;;;;;5107293;28;20584;-63
2021/05/19 10:27:50;;;;;;;6.80;1.00;;;16.70;92.20;;;;;;5107412;28;20122;-67
2021/05/19 10:30:40;;;;;;;4.88;1.10;;;17.00;93.40;;;;;;5104163;28;20039;-63
2021/05/19 10:33:26;;;;;;;1.42;0.73;;;17.20;93.30;;;;;;5105912;28;20336;-62
2021/05/19 10:35:52;;;;;;;2.33;1.17;;;17.70;93.70;;;;;;5102555;28;20383;-63
2021/05/19 10:38:24;;;;;;;4.50;1.00;;;17.90;92.20;;;;;;5107543;28;20057;-63
2021/05/19 10:40:55;;;;;;;3.20;0.70;;;17.90;92.20;;;;;;5102215;28;20024;-71
2021/05/19 10:43:21;;;;;;;2.63;0.60;;;17.90;89.10;;;;;;5107656;28;20062;-65
2021/05/19 10:45:58;;;;;;;4.03;1.13;;;17.90;86.80;;;;;;5106228;28;20065;-63
2021/05/19 10:48:32;;;;;;;0.75;0.50;;;17.80;88.20;;;;;;5105697;28;20058;-63
2021/05/19 10:51:18;;;;;;;3.72;0.90;;;18.20;86.50;;;;;;5103947;28;20024;-63
2021/05/19 11:00:17;;;;;;;2.45;0.85;;;20.20;90.40;;;;;;5033902;28;20032;-64
2021/05/19 11:02:55;;;;;;;2.20;0.50;;;20.50;88.10;;;;;;5097712;28;20465;-66
2021/05/19 11:05:22;;;;;;;0.82;0.47;;;20.80;82.60;;;;;;5112940;28;20125;-64
2021/05/19 11:08:06;;;;;;;2.45;0.60;;;20.50;74.20;;;;;;5111658;28;20113;-73
2021/05/19 11:10:46;;;;;;;1.27;0.30;;;20.40;73.60;;;;;;5111004;28;20446;-63
2021/05/19 11:13:13;;;;;;;2.60;0.65;;;20.60;76.00;;;;;;5111975;28;20460;-64
2021/05/19 11:18:30;;;;;;;4.50;0.55;;;21.60;73.50;;;;;;5109200;28;20135;-52
2021/05/19 11:20:57;;;;;;;3.65;0.60;;;21.90;87.00;;;;;;5105716;28;20032;-53
2021/05/19 11:23:23;;;;;;;2.00;0.98;;;21.90;75.80;;;;;;5109002;28;20034;-54
2021/05/19 11:25:49;;;;;;;2.88;0.32;;;21.40;76.10;;;;;;5108585;28;20475;-57
2021/05/19 11:28:25;;;;;;;1.98;0.30;;;21.40;73.30;;;;;;5108989;28;20028;-58
2021/05/19 11:30:50;;;;;;;2.97;0.77;;;21.60;71.80;;;;;;5110553;28;20039;-55
2021/05/19 11:33:21;;;;;;;3.42;0.35;;;21.90;71.30;;;;;;5109365;28;20469;-53
2021/05/19 11:35:48;;;;;;;4.53;0.50;;;21.50;72.30;;;;;;5109793;28;20383;-54
2021/05/19 11:38:15;;;;;;;6.35;0.70;;;21.10;67.70;;;;;;5109459;28;20119;-51
2021/05/19 11:40:50;;;;;;;1.83;0.55;;;20.80;72.10;;;;;;5108983;28;20038;-56
2021/05/19 11:43:20;;;;;;;1.23;0.30;;;20.90;67.10;;;;;;5110634;28;20039;-51
2021/05/19 11:45:52;;;;;;;2.13;0.28;;;20.60;66.00;;;;;;5110556;28;20039;-51
2021/05/19 11:48:24;;;;;;;2.88;0.47;;;20.90;67.40;;;;;;5088606;28;20388;-52
2021/05/19 11:50:51;;;;;;;2.53;0.85;;;21.00;69.50;;;;;;5087938;28;20119;-64
2021/05/19 11:53:18;;;;;;;0.50;0.30;;;21.10;69.70;;;;;;5088198;28;20114;-53
2021/05/19 11:55:53;;;;;;;1.20;0.25;;;21.30;69.40;;;;;;5089641;28;20107;-51
2021/05/19 11:58:27;;;;;;;1.25;0.20;;;21.50;68.00;;;;;;5089823;28;20448;-52
2021/05/19 12:01:04;;;;;;;3.53;0.20;;;21.50;68.70;;;;;;5094861;28;20361;-53
2021/05/19 12:03:32;;;;;;;0.52;0.20;;;21.10;67.40;;;;;;5109650;28;20082;-51
2021/05/19 12:06:00;;;;;;;5.88;0.63;;;21.00;66.50;;;;;;5107972;28;20465;-52
2021/05/19 12:08:34;;;;;;;0.38;0.20;;;21.60;66.70;;;;;;5109342;28;20035;-54
2021/05/19 12:11:19;;;;;;;2.72;0.30;;;21.90;63.60;;;;;;5108712;28;20135;-51
2021/05/19 12:14:04;;;;;;;1.98;0.45;;;21.40;64.10;;;;;;5110924;28;20089;-54
2021/05/19 12:16:33;;;;;;;2.65;0.55;;;21.40;64.60;;;;;;5106269;28;20722;-54
2021/05/19 12:19:01;;;;;;;0.57;0.20;;;20.90;64.40;;;;;;5105702;28;20204;-51
2021/05/19 12:21:28;;;;;;;1.60;0.50;;;20.80;68.80;;;;;;5108822;28;20028;-51
2021/05/19 12:23:54;;;;;;;1.00;0.20;;;20.90;67.70;;;;;;5107185;28;20027;-51
2021/05/19 12:26:26;;;;;;;1.13;0.30;;;20.50;66.90;;;;;;5110374;28;20030;-52
2021/05/19 12:28:51;;;;;;;4.85;0.40;;;20.40;66.90;;;;;;5109234;28;20024;-54
2021/05/19 12:31:29;;;;;;;3.13;0.32;;;20.70;65.70;;;;;;5107925;28;20119;-53
2021/05/19 12:33:56;;;;;;;3.38;0.60;;;20.70;65.70;;;;;;5106650;28;20043;-57
2021/05/19 12:36:33;;;;;;;2.20;0.50;;;20.40;66.40;;;;;;5109040;28;20063;-56
2021/05/19 12:39:02;;;;;;;1.50;0.35;;;20.30;68.10;;;;;;5102129;28;20054;-53
2021/05/19 12:41:44;;;;;;;2.35;0.38;;;20.20;67.70;;;;;;5108004;28;20252;-54
2021/05/19 12:44:10;;;;;;;;;;;20.00;70.20;;;;;;5106478;28;20731;-51
2021/05/19 12:46:36;;;;;;;1.45;0.30;;;20.40;69.60;;;;;;5105954;28;19915;-53
2021/05/19 12:49:08;;;;;;;2.22;0.40;;;21.20;67.80;;;;;;5109135;28;20111;-53
2021/05/19 12:51:47;;;;;;;1.55;0.43;;;21.50;62.50;;;;;;5109645;28;20028;-52
2021/05/19 12:54:23;;;;;;;1.20;0.38;;;21.30;65.40;;;;;;5107578;28;20096;-52
2021/05/19 12:57:10;;;;;;;3.08;0.28;;;21.20;65.80;;;;;;5108067;28;20361;-63
2021/05/19 12:59:51;;;;;;;3.55;0.50;;;20.90;65.40;;;;;;5109834;28;20054;-52
2021/05/19 13:02:17;;;;;;;1.10;0.45;;;20.80;65.80;;;;;;5107482;28;20032;-51
2021/05/19 13:04:51;;;;;;;1.52;0.20;;;21.40;64.20;;;;;;5108536;28;20032;-52